Time;durP1;ratioP1;P1;durP2;ratioP2;P2;SDS_P1;SDS_P2;PMS_P1;PMS_P2;Temp;Humidity;BMP_temperature;BMP_pressure;BME280_temperature;BME280_humidity;BME280_pressure;Samples;Min_cycle;Max_cycle;Signal;HPM_P1;HPM_P2
2023/05/07 00:00:33;;;;;;;13.80;13.30;;;16.50;1.00;;;;;;5066945;28;20448;-81
2023/05/07 00:03:02;;;;;;;14.73;14.20;;;16.40;1.00;;;;;;5076981;28;20521;-81
2023/05/07 00:05:32;;;;;;;14.30;13.70;;;16.40;1.00;;;;;;5075867;28;20481;-80
2023/05/07 00:08:00;;;;;;;14.20;13.70;;;16.40;1.00;;;;;;5076392;28;20460;-82
2023/05/07 00:10:29;;;;;;;14.10;13.50;;;16.40;1.00;;;;;;5074942;28;20458;-82
2023/05/07 00:12:57;;;;;;;14.77;13.90;;;16.40;1.00;;;;;;5077129;28;20484;-82
2023/05/07 00:15:25;;;;;;;13.77;13.30;;;16.40;1.00;;;;;;5063368;28;20464;-83
2023/05/07 00:17:54;;;;;;;14.77;13.97;;;16.40;1.00;;;;;;5080519;28;20966;-83
2023/05/07 00:20:22;;;;;;;13.90;13.40;;;16.40;1.00;;;;;;5076407;28;20456;-81
2023/05/07 00:22:52;;;;;;;14.40;13.90;;;16.40;1.00;;;;;;5081057;28;20478;-81
2023/05/07 00:25:20;;;;;;;14.57;14.07;;;16.30;1.00;;;;;;5084024;28;20484;-81
2023/05/07 00:27:48;;;;;;;14.33;13.83;;;16.30;1.00;;;;;;5085074;28;20464;-81
2023/05/07 00:30:17;;;;;;;14.63;14.03;;;16.30;1.00;;;;;;5083662;28;20470;-80
2023/05/07 00:32:45;;;;;;;14.23;13.83;;;16.30;1.00;;;;;;5075117;28;20486;-80
2023/05/07 00:35:14;;;;;;;14.73;14.13;;;16.30;1.00;;;;;;5060103;28;20505;-81
2023/05/07 00:37:42;;;;;;;14.80;14.10;;;16.30;1.00;;;;;;5083317;28;20517;-81
2023/05/07 00:40:12;;;;;;;14.63;14.03;;;16.20;1.00;;;;;;5080731;28;20463;-82
2023/05/07 00:42:40;;;;;;;14.10;13.50;;;16.20;1.00;;;;;;5081228;28;20496;-81
2023/05/07 00:45:10;;;;;;;14.10;13.30;;;16.20;1.00;;;;;;5081648;28;20485;-80
2023/05/07 00:47:38;;;;;;;14.13;13.63;;;16.10;1.00;;;;;;5083174;28;20450;-80
2023/05/07 00:50:09;;;;;;;14.10;13.60;;;16.10;1.00;;;;;;5078135;28;20544;-82
2023/05/07 00:52:38;;;;;;;14.33;13.73;;;16.10;1.00;;;;;;5076550;28;20487;-82
2023/05/07 00:55:08;;;;;;;14.60;14.10;;;16.10;1.00;;;;;;5081752;28;20991;-81
2023/05/07 00:57:41;;;;;;;14.33;13.83;;;16.20;1.00;;;;;;5081204;28;20585;-81
2023/05/07 01:00:12;;;;;;;14.20;13.70;;;16.20;1.00;;;;;;5083156;28;20464;-81
2023/05/07 01:02:41;;;;;;;14.97;14.20;;;16.20;1.00;;;;;;5062693;28;20493;-81
2023/05/07 01:05:13;;;;;;;13.80;13.40;;;16.20;1.00;;;;;;5081719;28;20491;-82
2023/05/07 01:07:43;;;;;;;14.47;13.97;;;16.10;1.00;;;;;;5081210;28;20479;-82
2023/05/07 01:10:12;;;;;;;15.00;14.17;;;16.10;1.00;;;;;;5063613;28;20940;-81
2023/05/07 01:12:43;;;;;;;14.57;13.97;;;16.10;1.00;;;;;;5081636;28;20905;-81
2023/05/07 01:15:12;;;;;;;14.50;14.00;;;16.00;1.00;;;;;;5080339;28;20551;-82
2023/05/07 01:17:41;;;;;;;14.73;14.20;;;16.10;1.00;;;;;;5080990;28;20842;-81
2023/05/07 01:20:11;;;;;;;15.07;14.43;;;16.00;1.00;;;;;;5081294;28;20443;-81
2023/05/07 01:22:41;;;;;;;14.60;14.00;;;16.00;1.00;;;;;;5064088;28;20560;-79
2023/05/07 01:25:10;;;;;;;14.10;13.70;;;16.00;1.00;;;;;;5077717;28;20870;-81
2023/05/07 01:27:38;;;;;;;14.50;14.00;;;16.00;26.90;;;;;;5081315;28;20466;-79
2023/05/07 01:30:07;;;;;;;15.07;14.40;;;16.00;57.90;;;;;;5081631;28;20589;-80
2023/05/07 01:32:41;;;;;;;14.93;13.97;;;16.00;39.10;;;;;;5086912;28;20466;-81
2023/05/07 01:35:14;;;;;;;14.43;13.97;;;16.00;1.00;;;;;;5081094;28;20517;-80
2023/05/07 01:37:44;;;;;;;13.80;13.30;;;16.00;29.60;;;;;;5081308;28;20482;-82
2023/05/07 01:40:12;;;;;;;14.17;13.57;;;16.00;22.10;;;;;;5078415;28;20476;-83
2023/05/07 01:42:42;;;;;;;13.83;13.33;;;16.00;27.10;;;;;;5078477;28;20537;-80
2023/05/07 01:45:11;;;;;;;15.03;14.10;;;16.00;40.90;;;;;;5061260;28;20512;-81
2023/05/07 01:47:40;;;;;;;14.10;13.47;;;16.00;22.20;;;;;;5080476;28;20448;-82
2023/05/07 01:50:09;;;;;;;14.97;14.27;;;16.00;29.60;;;;;;5078689;28;20552;-80
2023/05/07 01:52:39;;;;;;;15.00;14.03;;;15.80;6.00;;;;;;5081924;28;20898;-80
2023/05/07 01:55:09;;;;;;;14.37;13.67;;;15.80;52.00;;;;;;5080774;28;20806;-80
2023/05/07 01:57:37;;;;;;;14.87;14.27;;;15.70;95.70;;;;;;5081817;28;20463;-81
2023/05/07 02:00:08;;;;;;;14.83;14.20;;;15.80;99.90;;;;;;5078604;28;20462;-79
2023/05/07 02:02:37;;;;;;;14.10;13.60;;;15.80;99.90;;;;;;5076606;28;21021;-82
2023/05/07 02:05:07;;;;;;;14.73;14.13;;;15.80;99.90;;;;;;5079873;28;20483;-83
2023/05/07 02:07:35;;;;;;;13.80;13.40;;;15.70;99.90;;;;;;5081622;28;20442;-82
2023/05/07 02:10:03;;;;;;;14.13;13.53;;;15.80;99.90;;;;;;5078256;28;20953;-83
2023/05/07 02:12:33;;;;;;;13.83;13.23;;;15.80;99.90;;;;;;5078370;28;20489;-81
2023/05/07 02:15:01;;;;;;;14.37;13.87;;;15.80;99.90;;;;;;5080092;28;20859;-81
2023/05/07 02:17:31;;;;;;;14.20;13.70;;;15.70;99.90;;;;;;5080816;28;20518;-82
2023/05/07 02:19:59;;;;;;;14.77;14.07;;;15.70;99.90;;;;;;5076523;28;20457;-81
2023/05/07 02:22:28;;;;;;;14.87;14.37;;;15.60;99.90;;;;;;5078559;28;21015;-81
2023/05/07 02:24:56;;;;;;;13.80;13.10;;;15.60;99.90;;;;;;5062435;28;21015;-82
2023/05/07 02:27:25;;;;;;;13.87;13.37;;;15.60;99.90;;;;;;5080947;28;20863;-82
2023/05/07 02:29:54;;;;;;;14.17;13.37;;;15.60;99.90;;;;;;5077748;28;20760;-81
2023/05/07 02:32:23;;;;;;;13.80;13.20;;;15.60;99.90;;;;;;5071276;28;20479;-82
2023/05/07 02:34:52;;;;;;;14.47;13.77;;;15.60;99.90;;;;;;5077116;28;20506;-82
2023/05/07 02:37:20;;;;;;;13.87;13.30;;;15.60;99.90;;;;;;5075141;28;20583;-81
2023/05/07 02:39:48;;;;;;;14.43;13.73;;;15.60;99.90;;;;;;5078818;28;20468;-81
2023/05/07 02:42:16;;;;;;;14.60;14.10;;;15.60;99.90;;;;;;5081456;28;20482;-82
2023/05/07 02:44:44;;;;;;;14.50;13.90;;;15.60;99.90;;;;;;5081104;28;20455;-81
2023/05/07 02:47:16;;;;;;;14.30;13.70;;;15.50;99.90;;;;;;5080059;28;20462;-80
2023/05/07 02:49:44;;;;;;;14.63;14.13;;;15.40;99.90;;;;;;5076663;28;20464;-81
2023/05/07 02:52:12;;;;;;;14.27;13.67;;;15.40;99.90;;;;;;5076649;28;20474;-81
2023/05/07 02:54:40;;;;;;;14.97;14.40;;;15.40;99.90;;;;;;5081053;28;20492;-81
2023/05/07 02:57:08;;;;;;;14.80;14.10;;;15.30;99.90;;;;;;5079624;28;20431;-81
2023/05/07 02:59:36;;;;;;;15.53;14.53;;;15.30;99.90;;;;;;5074713;28;20458;-82
2023/05/07 03:02:05;;;;;;;14.97;14.17;;;15.30;99.90;;;;;;5078148;28;20515;-82
2023/05/07 03:04:34;;;;;;;14.37;13.77;;;15.30;99.90;;;;;;5076557;28;20475;-81
2023/05/07 03:07:03;;;;;;;14.63;14.10;;;15.40;99.90;;;;;;5078239;28;20535;-81
2023/05/07 03:09:31;;;;;;;14.17;13.67;;;15.30;99.90;;;;;;5057900;28;20513;-81
2023/05/07 03:11:59;;;;;;;15.00;14.30;;;15.20;99.90;;;;;;5076883;28;20489;-82
2023/05/07 03:14:27;;;;;;;14.30;13.63;;;15.10;99.90;;;;;;5076874;28;20459;-80
2023/05/07 03:16:55;;;;;;;14.17;13.67;;;15.20;99.90;;;;;;5075132;28;20538;-82
2023/05/07 03:19:23;;;;;;;13.70;13.30;;;15.10;99.90;;;;;;5075868;28;20547;-82
2023/05/07 03:21:53;;;;;;;15.20;14.20;;;15.20;99.90;;;;;;5077784;28;20471;-83
2023/05/07 03:24:21;;;;;;;14.60;13.93;;;15.20;99.90;;;;;;5075440;28;20444;-81
2023/05/07 03:26:49;;;;;;;13.80;13.27;;;15.20;99.90;;;;;;5076844;28;20470;-82
2023/05/07 03:29:17;;;;;;;13.83;13.33;;;15.20;99.90;;;;;;5072805;28;20476;-82
2023/05/07 03:31:46;;;;;;;14.40;13.80;;;15.10;99.90;;;;;;5076494;28;20468;-81
2023/05/07 03:34:16;;;;;;;14.73;14.13;;;15.00;99.90;;;;;;5076947;28;21125;-82
2023/05/07 03:36:45;;;;;;;14.73;14.23;;;15.00;99.90;;;;;;5078734;28;20445;-81
2023/05/07 03:39:14;;;;;;;14.60;14.10;;;15.10;99.90;;;;;;5077325;28;20490;-80
2023/05/07 03:41:42;;;;;;;15.23;14.53;;;15.10;99.90;;;;;;5076360;28;20825;-80
2023/05/07 03:44:10;;;;;;;15.20;14.60;;;15.10;99.90;;;;;;5076962;28;20454;-81
2023/05/07 03:46:39;;;;;;;14.30;13.70;;;15.00;99.90;;;;;;5072932;28;20523;-81
2023/05/07 03:49:07;;;;;;;14.43;13.77;;;15.00;99.90;;;;;;5076787;28;20555;-81
2023/05/07 03:51:36;;;;;;;14.57;13.97;;;14.90;99.90;;;;;;5076806;28;20860;-81
2023/05/07 03:54:04;;;;;;;13.80;13.40;;;14.90;99.90;;;;;;5080877;28;20437;-81
2023/05/07 03:56:34;;;;;;;14.37;13.73;;;14.90;99.90;;;;;;5076852;28;20461;-80
2023/05/07 03:59:02;;;;;;;13.33;12.90;;;14.80;99.90;;;;;;5071581;28;20438;-80
2023/05/07 04:01:30;;;;;;;13.97;13.37;;;14.90;1.00;;;;;;5075414;28;20532;-81
2023/05/07 04:03:58;;;;;;;13.93;13.33;;;14.80;1.00;;;;;;5079291;28;20489;-81
2023/05/07 04:06:27;;;;;;;14.47;13.97;;;14.80;1.00;;;;;;5080087;28;20862;-80
2023/05/07 04:08:55;;;;;;;14.97;14.27;;;14.80;1.00;;;;;;5076461;28;21262;-80
2023/05/07 04:11:23;;;;;;;14.10;13.70;;;14.80;99.90;;;;;;5077909;28;20471;-82
2023/05/07 04:13:53;;;;;;;15.20;14.60;;;14.80;99.90;;;;;;5079647;28;20975;-82
2023/05/07 04:16:21;;;;;;;14.80;14.20;;;14.80;99.90;;;;;;5075199;28;20462;-82
2023/05/07 04:18:49;;;;;;;15.27;14.57;;;14.90;99.90;;;;;;5075991;28;20829;-82
2023/05/07 04:21:18;;;;;;;14.70;13.80;;;14.80;99.90;;;;;;5057076;28;20486;-81
2023/05/07 04:23:47;;;;;;;14.50;13.70;;;14.70;99.90;;;;;;5076769;28;20451;-81
2023/05/07 04:26:15;;;;;;;14.80;14.20;;;14.70;1.00;;;;;;5072440;28;20645;-81
2023/05/07 04:28:44;;;;;;;14.37;13.73;;;14.60;1.00;;;;;;5075459;28;20452;-82
2023/05/07 04:31:14;;;;;;;14.50;14.10;;;14.60;1.00;;;;;;5075511;28;20463;-81
2023/05/07 04:33:42;;;;;;;15.27;14.67;;;14.60;1.00;;;;;;5075471;28;20455;-81
2023/05/07 04:36:10;;;;;;;14.90;14.30;;;14.60;1.00;;;;;;5077006;28;20456;-82
2023/05/07 04:38:38;;;;;;;15.43;14.80;;;14.60;1.00;;;;;;5076461;28;20629;-81
2023/05/07 04:41:11;;;;;;;15.53;15.00;;;14.60;1.00;;;;;;5075186;28;20739;-81
2023/05/07 04:43:39;;;;;;;16.40;15.70;;;14.60;1.00;;;;;;5082718;28;21002;-82
2023/05/07 04:46:08;;;;;;;15.50;15.00;;;14.70;1.00;;;;;;5075891;28;20471;-82
2023/05/07 04:48:37;;;;;;;15.67;14.97;;;14.70;1.00;;;;;;5075075;28;20439;-81
2023/05/07 04:51:06;;;;;;;15.40;14.80;;;14.70;99.90;;;;;;5075532;28;20493;-82
2023/05/07 04:53:34;;;;;;;16.00;15.50;;;14.70;99.90;;;;;;5078973;28;20450;-81
2023/05/07 04:56:02;;;;;;;15.93;15.43;;;14.70;1.00;;;;;;5075499;28;20447;-81
2023/05/07 04:58:31;;;;;;;16.20;15.60;;;14.70;1.00;;;;;;5071819;28;20476;-81
2023/05/07 05:01:00;;;;;;;16.43;15.73;;;14.70;1.00;;;;;;5076373;28;21003;-82
2023/05/07 05:03:29;;;;;;;16.77;16.17;;;14.80;1.00;;;;;;5079888;28;20505;-81
2023/05/07 05:06:00;;;;;;;16.33;15.83;;;14.80;1.00;;;;;;5081270;28;20450;-81
2023/05/07 05:08:28;;;;;;;16.53;15.90;;;14.80;1.00;;;;;;5076542;28;20447;-81
2023/05/07 05:10:56;;;;;;;16.17;15.63;;;14.80;1.00;;;;;;5081502;28;20460;-83
2023/05/07 05:13:24;;;;;;;16.80;16.00;;;14.90;99.90;;;;;;5079631;28;20926;-81
2023/05/07 05:15:52;;;;;;;17.43;16.67;;;14.90;99.90;;;;;;5082514;28;20437;-82
2023/05/07 05:18:21;;;;;;;17.30;16.33;;;14.90;1.00;;;;;;5081158;28;20539;-81
2023/05/07 05:20:49;;;;;;;17.53;16.83;;;14.90;1.00;;;;;;5080543;28;20531;-80
2023/05/07 05:23:19;;;;;;;17.03;16.43;;;15.00;99.90;;;;;;5061224;28;20477;-81
2023/05/07 05:25:47;;;;;;;17.47;16.77;;;15.00;99.90;;;;;;5081079;28;20562;-81
2023/05/07 05:28:15;;;;;;;16.97;16.37;;;15.00;99.90;;;;;;5081909;28;20494;-81
2023/05/07 05:30:43;;;;;;;17.53;16.93;;;15.10;99.90;;;;;;5079193;28;20533;-81
2023/05/07 05:33:11;;;;;;;16.90;16.30;;;15.10;99.90;;;;;;5076736;28;20442;-80
2023/05/07 05:35:40;;;;;;;17.80;17.20;;;15.20;99.90;;;;;;5074463;28;20991;-80
2023/05/07 05:38:08;;;;;;;17.67;16.80;;;15.20;99.90;;;;;;5074743;28;20550;-81
2023/05/07 05:40:37;;;;;;;17.77;16.97;;;15.30;99.90;;;;;;5078577;28;20456;-81
2023/05/07 05:43:07;;;;;;;17.67;16.87;;;15.30;99.90;;;;;;5080678;28;20461;-81
2023/05/07 05:45:35;;;;;;;18.27;17.50;;;15.40;99.90;;;;;;5077881;28;20499;-81
2023/05/07 05:48:03;;;;;;;19.00;18.20;;;15.50;99.90;;;;;;5078203;28;20502;-79
2023/05/07 05:50:31;;;;;;;17.53;16.93;;;15.60;99.90;;;;;;5076567;28;21197;-81
2023/05/07 05:52:59;;;;;;;17.43;16.83;;;15.70;99.90;;;;;;5076530;28;20856;-79
2023/05/07 05:55:28;;;;;;;18.37;17.67;;;15.70;99.90;;;;;;5078097;28;20641;-81
2023/05/07 05:57:57;;;;;;;18.47;17.63;;;15.80;99.90;;;;;;5058977;28;20465;-81
2023/05/07 06:00:26;;;;;;;18.70;18.00;;;15.90;99.90;;;;;;5077772;28;20458;-80
2023/05/07 06:02:54;;;;;;;18.63;17.90;;;15.90;99.90;;;;;;5074560;28;20467;-80
2023/05/07 06:05:22;;;;;;;18.87;17.87;;;16.00;99.90;;;;;;5075620;28;21016;-81
2023/05/07 06:07:51;;;;;;;18.50;17.80;;;16.20;99.90;;;;;;5080435;28;20496;-81
2023/05/07 06:10:19;;;;;;;19.40;18.60;;;16.30;36.80;;;;;;5078079;28;20973;-80
2023/05/07 06:12:47;;;;;;;18.30;17.50;;;16.40;26.50;;;;;;5078509;28;20472;-80
2023/05/07 06:15:16;;;;;;;18.27;17.57;;;16.50;1.00;;;;;;5082451;28;20452;-81
2023/05/07 06:17:45;;;;;;;17.67;17.03;;;16.50;1.00;;;;;;5079935;28;20447;-82
2023/05/07 06:20:13;;;;;;;17.97;17.13;;;16.60;1.00;;;;;;5075558;28;20463;-79
2023/05/07 06:22:41;;;;;;;18.00;17.30;;;16.70;13.60;;;;;;5078807;28;20566;-80
2023/05/07 06:25:10;;;;;;;18.03;17.10;;;16.80;1.60;;;;;;5078266;28;20469;-80
2023/05/07 06:27:39;;;;;;;17.80;17.10;;;16.90;58.60;;;;;;5073718;28;20538;-80
2023/05/07 06:30:08;;;;;;;17.80;17.20;;;17.00;1.00;;;;;;5072318;28;20817;-79
2023/05/07 06:32:38;;;;;;;17.70;17.00;;;17.10;1.00;;;;;;5073394;28;20464;-79
2023/05/07 06:35:07;;;;;;;16.80;16.30;;;17.20;1.00;;;;;;5071501;28;20460;-80
2023/05/07 06:37:38;;;;;;;17.73;17.00;;;17.30;1.00;;;;;;5074097;28;20459;-82
2023/05/07 06:40:07;;;;;;;17.17;16.57;;;17.40;1.00;;;;;;5077640;28;20498;-81
2023/05/07 06:42:36;;;;;;;17.50;17.00;;;17.60;1.00;;;;;;5070013;28;20478;-81
2023/05/07 06:45:06;;;;;;;18.67;17.70;;;17.60;1.00;;;;;;5074279;28;20963;-81
2023/05/07 06:47:34;;;;;;;17.93;17.20;;;17.70;1.00;;;;;;5077924;28;20473;-81
2023/05/07 06:50:03;;;;;;;17.87;17.27;;;17.80;1.00;;;;;;5076598;28;20464;-81
2023/05/07 06:52:31;;;;;;;17.60;17.10;;;17.90;1.00;;;;;;5078936;28;20474;-82
2023/05/07 06:55:00;;;;;;;17.30;16.60;;;18.10;1.00;;;;;;5079607;28;20526;-81
2023/05/07 06:57:28;;;;;;;18.03;17.23;;;18.10;1.00;;;;;;5073701;28;20445;-80
2023/05/07 06:59:57;;;;;;;18.20;17.40;;;18.20;1.00;;;;;;5077127;28;20535;-79
2023/05/07 07:02:25;;;;;;;17.00;16.50;;;18.30;1.00;;;;;;5076421;28;20473;-81
2023/05/07 07:04:53;;;;;;;17.20;16.60;;;18.40;1.00;;;;;;5074299;28;20532;-80
2023/05/07 07:07:23;;;;;;;18.17;17.57;;;18.60;1.00;;;;;;5072097;28;20457;-81
2023/05/07 07:09:52;;;;;;;17.00;16.33;;;18.60;1.00;;;;;;5072580;28;20466;-82
2023/05/07 07:12:22;;;;;;;17.10;16.50;;;18.60;1.00;;;;;;5079868;28;20473;-82
2023/05/07 07:14:51;;;;;;;17.07;16.47;;;18.70;1.00;;;;;;5077975;28;21055;-83
2023/05/07 07:17:19;;;;;;;17.83;17.13;;;18.80;1.00;;;;;;5078627;28;20504;-85
2023/05/07 07:23:08;;;;;;;;;;;;;;;;;;;;;
2023/05/07 07:25:50;;;;;;;17.47;16.87;;;18.90;1.00;;;;;;5075404;28;20546;-81
2023/05/07 07:28:39;;;;;;;17.20;16.60;;;19.00;1.00;;;;;;5078102;28;20478;-83
2023/05/07 07:31:41;;;;;;;17.70;16.60;;;19.10;1.00;;;;;;5079828;28;20522;-82
2023/05/07 07:37:12;;;;;;;16.87;16.10;;;19.00;1.00;;;;;;5059671;28;20454;-81
2023/05/07 07:39:45;;;;;;;16.90;16.40;;;19.00;1.00;;;;;;5063788;28;20457;-80
2023/05/07 07:42:13;;;;;;;17.70;17.00;;;19.00;1.00;;;;;;5076548;28;20476;-82
2023/05/07 07:44:52;;;;;;;;;;;;;;;;;;;;;
2023/05/07 07:47:37;;;;;;;16.73;16.23;;;19.10;1.00;;;;;;5060420;28;20461;-82
2023/05/07 07:50:47;;;;;;;16.30;15.90;;;19.20;1.00;;;;;;5063776;28;20513;-85
2023/05/07 07:53:22;;;;;;;17.10;16.50;;;19.20;1.00;;;;;;5074379;28;20464;-81
2023/05/07 07:55:51;;;;;;;16.50;15.90;;;19.20;1.00;;;;;;5076657;28;20454;-83
2023/05/07 07:58:26;;;;;;;17.10;16.50;;;19.20;1.00;;;;;;5080208;28;20475;-81
2023/05/07 08:00:55;;;;;;;16.60;16.00;;;19.10;1.00;;;;;;5061678;28;20548;-81
2023/05/07 08:03:27;;;;;;;16.20;15.70;;;19.20;1.00;;;;;;5075926;28;20745;-80
2023/05/07 08:05:56;;;;;;;16.20;15.67;;;19.30;1.00;;;;;;5078668;28;21062;-82
2023/05/07 08:08:25;;;;;;;16.40;15.80;;;19.30;99.90;;;;;;5079953;28;20512;-82
2023/05/07 08:10:54;;;;;;;16.17;15.57;;;19.30;99.90;;;;;;5076460;28;20445;-81
2023/05/07 08:13:23;;;;;;;15.43;14.93;;;19.30;99.90;;;;;;5080420;28;20465;-84
2023/05/07 08:16:02;;;;;;;16.33;15.63;;;19.40;99.90;;;;;;5080253;28;20879;-80
2023/05/07 08:18:43;;;;;;;16.20;15.60;;;19.50;99.90;;;;;;5080790;28;20481;-81
2023/05/07 08:21:11;;;;;;;15.60;15.20;;;19.60;99.90;;;;;;5073085;28;20446;-81
2023/05/07 08:23:39;;;;;;;15.20;14.80;;;19.60;99.90;;;;;;5076690;28;20196;-82
2023/05/07 08:26:27;;;;;;;15.43;15.03;;;19.90;99.90;;;;;;5073967;28;21259;-83
2023/05/07 08:29:01;;;;;;;15.67;14.97;;;19.90;99.90;;;;;;5077544;28;20532;-80
2023/05/07 08:31:31;;;;;;;16.10;15.60;;;19.70;99.90;;;;;;5077334;28;20466;-79
2023/05/07 08:34:33;;;;;;;15.30;14.90;;;19.80;99.90;;;;;;5062023;28;20458;-80
2023/05/07 08:37:39;;;;;;;16.37;15.77;;;19.80;99.90;;;;;;5054578;28;20462;-85
2023/05/07 08:40:46;;;;;;;15.77;15.27;;;19.80;99.90;;;;;;5081060;28;20460;-83
2023/05/07 08:46:57;;;;;;;15.90;15.33;;;19.90;99.90;;;;;;5078340;28;20466;-82
2023/05/07 08:49:49;;;;;;;15.67;15.17;;;19.80;99.90;;;;;;5077018;28;20539;-80
2023/05/07 08:52:28;;;;;;;15.00;14.60;;;19.80;99.90;;;;;;5074894;28;20509;-79
2023/05/07 08:58:04;;;;;;;15.30;14.80;;;20.00;99.90;;;;;;5079628;28;20453;-80
2023/05/07 09:00:49;;;;;;;14.77;14.37;;;20.10;99.90;;;;;;5074914;28;20457;-82
2023/05/07 09:03:35;;;;;;;15.00;14.60;;;20.10;99.90;;;;;;5057778;28;20446;-80
2023/05/07 09:06:28;;;;;;;14.53;14.10;;;20.20;99.90;;;;;;5075515;28;20863;-81
2023/05/07 09:09:19;;;;;;;14.77;14.37;;;20.30;99.90;;;;;;5077271;28;20477;-79
2023/05/07 09:12:04;;;;;;;14.93;14.53;;;20.30;99.90;;;;;;5074777;28;20478;-79
2023/05/07 09:14:55;;;;;;;15.03;14.63;;;20.40;99.90;;;;;;5073169;28;20454;-78
2023/05/07 09:17:28;;;;;;;15.17;14.57;;;20.40;99.90;;;;;;5077883;28;20450;-80
2023/05/07 09:19:57;;;;;;;14.83;14.30;;;20.50;99.90;;;;;;5083456;28;20434;-80
2023/05/07 09:22:25;;;;;;;15.30;14.80;;;20.50;99.90;;;;;;5075018;28;20484;-81
2023/05/07 09:24:53;;;;;;;14.83;14.43;;;20.60;99.90;;;;;;5080531;28;20879;-81
2023/05/07 09:27:21;;;;;;;15.50;15.00;;;20.60;99.90;;;;;;5072655;28;20454;-79
2023/05/07 09:29:50;;;;;;;15.77;15.33;;;20.60;99.90;;;;;;5077667;28;20474;-78
2023/05/07 09:32:19;;;;;;;14.77;14.37;;;20.60;99.90;;;;;;5070501;28;20477;-80
2023/05/07 09:34:49;;;;;;;14.90;14.50;;;20.70;99.90;;;;;;5057024;28;21035;-79
2023/05/07 09:37:19;;;;;;;15.30;14.80;;;20.70;99.90;;;;;;5079145;28;20920;-79
2023/05/07 09:39:50;;;;;;;15.27;14.70;;;20.70;99.90;;;;;;5061104;28;20488;-80
2023/05/07 09:42:24;;;;;;;15.40;14.80;;;20.80;99.90;;;;;;5079892;28;20576;-79
2023/05/07 09:44:52;;;;;;;16.00;15.50;;;21.00;99.90;;;;;;5077755;28;20453;-79
2023/05/07 09:47:24;;;;;;;15.90;15.30;;;21.00;99.90;;;;;;5082406;28;20194;-80
2023/05/07 09:49:58;;;;;;;15.47;14.97;;;21.10;99.90;;;;;;5079062;28;20575;-79
2023/05/07 09:52:28;;;;;;;15.30;14.90;;;21.10;99.90;;;;;;5050403;28;20541;-81
2023/05/07 09:55:00;;;;;;;16.10;15.40;;;21.10;99.90;;;;;;5059489;28;20668;-80
2023/05/07 09:57:29;;;;;;;15.40;14.83;;;21.20;99.90;;;;;;5079110;28;20458;-79
2023/05/07 10:00:01;;;;;;;16.50;15.70;;;21.20;99.90;;;;;;5080435;28;20452;-81
2023/05/07 10:02:32;;;;;;;15.50;14.97;;;21.30;99.90;;;;;;5080438;28;20470;-79
2023/05/07 10:05:03;;;;;;;16.83;16.00;;;21.30;99.90;;;;;;5083799;28;20541;-79
2023/05/07 10:07:31;;;;;;;16.90;16.10;;;21.30;99.90;;;;;;5079349;28;21090;-79
2023/05/07 10:10:01;;;;;;;15.53;14.80;;;21.40;99.90;;;;;;5059228;28;20487;-80
2023/05/07 10:12:37;;;;;;;16.17;15.27;;;21.40;99.90;;;;;;5078163;28;20865;-82
2023/05/07 10:15:11;;;;;;;15.47;14.70;;;21.50;99.90;;;;;;5062723;28;20498;-79
2023/05/07 10:17:41;;;;;;;15.20;14.50;;;21.60;99.90;;;;;;5062948;28;20777;-82
2023/05/07 10:20:12;;;;;;;14.67;14.07;;;21.60;99.90;;;;;;5065487;28;20456;-80
2023/05/07 10:22:45;;;;;;;14.27;13.67;;;21.60;99.90;;;;;;5079107;28;20496;-80
2023/05/07 10:25:23;;;;;;;13.87;13.47;;;21.60;99.90;;;;;;5077234;28;20453;-81
2023/05/07 10:27:54;;;;;;;14.53;14.03;;;21.70;99.90;;;;;;5077947;28;20461;-80
2023/05/07 10:30:32;;;;;;;15.43;14.70;;;21.80;99.90;;;;;;5079057;28;20475;-79
2023/05/07 10:33:06;;;;;;;14.83;14.23;;;21.80;99.90;;;;;;5078494;28;20844;-79
2023/05/07 10:35:41;;;;;;;13.90;13.50;;;21.90;99.90;;;;;;5080720;28;20457;-79
2023/05/07 10:38:10;;;;;;;15.90;15.27;;;21.90;99.90;;;;;;5076542;28;20477;-78
2023/05/07 10:40:38;;;;;;;15.40;14.80;;;22.00;99.90;;;;;;5077482;28;21032;-79
2023/05/07 10:43:07;;;;;;;15.13;14.63;;;22.00;99.90;;;;;;5077198;28;20478;-80
2023/05/07 10:45:38;;;;;;;15.60;15.10;;;22.00;99.90;;;;;;5076818;28;20461;-79
2023/05/07 10:48:16;;;;;;;15.43;14.93;;;22.00;99.90;;;;;;5075949;28;20452;-79
2023/05/07 10:50:52;;;;;;;16.13;15.63;;;22.10;99.90;;;;;;5079690;28;20502;-80
2023/05/07 10:53:28;;;;;;;15.10;14.50;;;22.10;99.90;;;;;;5077708;28;20493;-79
2023/05/07 10:56:30;;;;;;;14.90;14.40;;;22.10;99.90;;;;;;5082710;28;20457;-80
2023/05/07 10:59:33;;;;;;;14.70;14.30;;;22.20;99.90;;;;;;5075204;28;20696;-79
2023/05/07 11:02:03;;;;;;;15.10;14.70;;;22.20;99.90;;;;;;5075847;28;20465;-80
2023/05/07 11:04:34;;;;;;;16.30;15.60;;;22.20;99.90;;;;;;5053844;28;20477;-79
2023/05/07 11:07:38;;;;;;;15.20;14.80;;;22.30;99.90;;;;;;5075131;28;20507;-80
2023/05/07 11:10:08;;;;;;;15.03;14.63;;;22.40;99.90;;;;;;5071601;28;20482;-82
2023/05/07 11:12:53;;;;;;;15.73;15.23;;;22.50;99.90;;;;;;5064016;28;20469;-86
2023/05/07 11:15:45;;;;;;;15.43;14.93;;;22.40;99.90;;;;;;5080622;28;20454;-82
2023/05/07 11:18:17;;;;;;;15.30;14.90;;;22.50;99.90;;;;;;5064018;28;20450;-85
2023/05/07 11:20:53;;;;;;;14.90;14.43;;;22.40;99.90;;;;;;5081662;28;20453;-81
2023/05/07 11:24:04;;;;;;;15.10;14.70;;;22.40;99.90;;;;;;5081367;28;20442;-83
2023/05/07 11:26:48;;;;;;;15.33;14.93;;;22.30;99.90;;;;;;5063611;28;20457;-86
2023/05/07 11:29:18;;;;;;;15.60;15.10;;;22.30;99.90;;;;;;5078922;28;20504;-86
2023/05/07 11:34:36;;;;;;;15.50;15.00;;;22.20;99.90;;;;;;5071418;28;20453;-84
2023/05/07 11:37:09;;;;;;;15.63;15.17;;;22.10;99.90;;;;;;5075985;28;20504;-83
2023/05/07 11:39:54;;;;;;;15.70;15.30;;;22.00;99.90;;;;;;5079855;28;20851;-84
2023/05/07 11:42:35;;;;;;;15.53;15.03;;;22.00;99.90;;;;;;5083672;28;20579;-85
2023/05/07 11:45:08;;;;;;;15.93;15.43;;;21.90;99.90;;;;;;5079330;28;20516;-82
2023/05/07 11:47:36;;;;;;;14.47;14.07;;;21.90;99.90;;;;;;5077231;28;21164;-85
2023/05/07 11:50:28;;;;;;;15.20;14.70;;;21.90;99.90;;;;;;5081098;28;20463;-84
2023/05/07 11:53:42;;;;;;;15.10;14.70;;;21.90;99.90;;;;;;5081343;28;20445;-83
2023/05/07 11:56:54;;;;;;;14.77;14.20;;;21.80;99.90;;;;;;5080597;28;20498;-84
2023/05/07 12:03:13;;;;;;;15.50;15.10;;;21.80;99.90;;;;;;5061721;28;20478;-83
2023/05/07 12:06:03;;;;;;;15.60;15.10;;;21.70;99.90;;;;;;5079409;28;20821;-84
2023/05/07 12:08:31;;;;;;;14.60;13.93;;;21.50;99.90;;;;;;5057734;28;20455;-83
2023/05/07 12:10:59;;;;;;;13.00;12.70;;;21.40;99.90;;;;;;5076014;28;21050;-84
2023/05/07 12:13:33;;;;;;;12.70;12.40;;;21.10;99.90;;;;;;5079442;28;20459;-82
2023/05/07 12:16:05;;;;;;;12.40;12.10;;;21.00;99.90;;;;;;5066659;28;20456;-81
2023/05/07 12:18:37;;;;;;;13.43;12.93;;;20.90;99.90;;;;;;5083382;28;20502;-83
2023/05/07 12:21:43;;;;;;;12.60;12.10;;;20.80;99.90;;;;;;5085446;28;20476;-80
2023/05/07 12:24:25;;;;;;;12.40;12.00;;;20.60;99.90;;;;;;5081279;28;20531;-80
2023/05/07 12:27:18;;;;;;;12.70;12.20;;;20.60;99.90;;;;;;5082044;28;20450;-82
2023/05/07 12:30:14;;;;;;;12.70;12.30;;;20.50;99.90;;;;;;5069796;28;20446;-82
2023/05/07 12:33:03;;;;;;;13.00;12.60;;;20.40;99.90;;;;;;5080171;28;20469;-81
2023/05/07 12:35:54;;;;;;;13.17;12.50;;;20.40;99.90;;;;;;5082124;28;20461;-82
2023/05/07 12:38:33;;;;;;;12.60;12.30;;;20.30;99.90;;;;;;5083688;28;20446;-79
2023/05/07 12:41:09;;;;;;;14.10;13.40;;;20.30;99.90;;;;;;5083661;28;20496;-81
2023/05/07 12:43:38;;;;;;;13.97;13.47;;;20.20;99.90;;;;;;5083786;28;20453;-83
2023/05/07 12:46:09;;;;;;;13.93;13.53;;;19.80;99.90;;;;;;5077410;28;20464;-81
2023/05/07 12:48:38;;;;;;;14.00;13.63;;;19.50;99.90;;;;;;5084483;28;20516;-84
2023/05/07 12:51:09;;;;;;;14.63;14.13;;;19.10;99.90;;;;;;5092645;28;20572;-84
2023/05/07 12:53:44;;;;;;;15.20;14.73;;;19.10;99.90;;;;;;5094515;28;20517;-82
2023/05/07 12:56:12;;;;;;;15.40;14.70;;;18.70;1.00;;;;;;5091134;28;20995;-82
2023/05/07 12:58:41;;;;;;;15.07;14.40;;;18.30;1.00;;;;;;5089954;28;20469;-81
2023/05/07 13:01:15;;;;;;;13.73;13.43;;;18.20;37.50;;;;;;5088437;28;20477;-82
2023/05/07 13:03:50;;;;;;;13.80;13.50;;;18.10;99.90;;;;;;5088151;28;20458;-81
2023/05/07 13:06:18;;;;;;;13.80;13.50;;;18.20;99.90;;;;;;5082169;28;20449;-81
2023/05/07 13:08:46;;;;;;;13.80;13.50;;;18.30;99.90;;;;;;5086827;28;20450;-81
2023/05/07 13:11:15;;;;;;;14.37;14.00;;;18.40;99.90;;;;;;5088154;28;20534;-81
2023/05/07 13:13:43;;;;;;;14.83;14.33;;;18.50;1.00;;;;;;5088379;28;20442;-82
2023/05/07 13:16:13;;;;;;;14.77;14.27;;;18.50;1.00;;;;;;5085969;28;20450;-82
2023/05/07 13:18:43;;;;;;;15.40;14.80;;;18.50;1.00;;;;;;5080753;28;21020;-81